• Join FlightAware (Why Join?)
  • Login
  • US Flag 
12:29PM EDT


 

Airport Tracker/Info


-or-


 

Live Flight TrackerFlight Track Log ✈ UAL5915 ✈ 16-Apr-2013 ✈ KTUL - KIAD

Flight Track Log - Related Links

Times and Time Zones

All times are in EDT time to prevent confusion due to time zone crossing. See the UAL5915 flight status page for this flight to view local times or setup timezone preferences in your user account.

Time Position Orientation Groundspeed Altitude Reporting Facility
EDT Latitude Longitude Course Direction KTS MPH feet Rate Location/Type
01:38PM 36.1956 -95.8686 98° East 170 196 1,200  Level Kansas City Center
01:40PM 36.1858 -95.7792 98° East 230 265 3,600 1,740 Climbing Kansas City Center
01:40PM 36.1828 -95.7619 102° East 217 250 4,000 2,280 Climbing Kansas City Center
01:40PM 36.1683 -95.6986 106° East 284 327 5,700 2,340 Climbing Kansas City Center
01:41PM 36.1647 -95.6703 99° East 259 298 6,500 2,400 Climbing Kansas City Center
01:41PM 36.1494 -95.6028 106° East 290 334 8,100 2,220 Climbing Kansas City Center
01:42PM 36.1442 -95.5753 103° East 281 323 8,800 2,040 Climbing Kansas City Center
01:43PM 36.1189 -95.4569 105° East 294 338 11,200 1,500 Climbing Kansas City Center
01:44PM 36.0956 -95.3428 104° East 334 384 12,000 1,080 Climbing Kansas City Center
01:45PM 36.0675 -95.2164 105° East 373 429 13,500 1,440 Climbing Kansas City Center
01:46PM 36.0406 -95.0858 104° East 391 450 15,000 1,380 Climbing Kansas City Center
01:47PM 36.0219 -94.9475 99° East 407 468 16,400 1,260 Climbing Kansas City Center
01:48PM 36.0281 -94.8042 87° East 418 481 17,700 1,380 Climbing Kansas City Center
01:49PM 36.0325 -94.6536 88° East 417 480 19,100 1,620 Climbing Memphis Center
01:50PM 36.0394 -94.5103 87° East 422 486 20,900 1,800 Climbing Memphis Center
01:51PM 36.0442 -94.3642 88° East 422 486 22,700 1,500 Climbing Memphis Center
01:52PM 36.0489 -94.2206 88° East 422 486 24,000 1,380 Climbing Memphis Center
01:53PM 36.0533 -94.0744 88° East 422 486 25,500 1,560 Climbing Memphis Center
01:54PM 36.0556 -93.9258 89° East 427 491 27,200 1,500 Climbing Memphis Center
01:55PM 36.0594 -93.7872 88° East 410 472 28,600 1,380 Climbing Memphis Center
01:56PM 36.0653 -93.6489 87° East 405 466 30,000 1,320 Climbing Memphis Center
01:57PM 36.0667 -93.5078 89° East 405 466 31,300 1,200 Climbing Memphis Center
01:58PM 36.0722 -93.3692 87° East 405 466 32,500 1,140 Climbing Memphis Center
01:59PM 36.0756 -93.2281 88° East 405 466 33,600 1,020 Climbing Memphis Center
02:00PM 36.0789 -93.0869 88° East 405 466 34,600 840 Climbing Memphis Center
02:01PM 36.0839 -92.9458 87° East 400 460 35,300 600 Climbing Memphis Center
02:02PM 36.0867 -92.8047 89° East 410 472 35,900 540 Climbing Memphis Center
02:03PM 36.0894 -92.6636 89° East 410 472 36,400 540 Climbing Memphis Center
02:04PM 36.0900 -92.5172 90° East 415 478 37,000 300 Climbing Memphis Center
02:05PM 36.0944 -92.3683 88° East 422 486 37,000  Level Memphis Center
02:06PM 36.0969 -92.2142 89° East 428 493 37,000  Level Memphis Center
02:07PM 36.0972 -92.0447 90° East 446 513 37,000  Level Memphis Center
02:08PM 36.0994 -91.8778 89° East 456 525 37,000  Level Memphis Center
02:09PM 36.1033 -91.7056 88° East 477 549 37,000  Level Memphis Center
02:10PM 36.1053 -91.5336 89° East 487 560 37,000  Level Memphis Center
02:11PM 36.1047 -91.3564 90° East 498 573 37,000  Level Memphis Center
02:12PM 36.1081 -91.1792 89° East 508 585 37,000  Level Memphis Center
02:13PM 36.1069 -91.0044 90° East 508 585 37,000  Level Memphis Center
02:14PM 36.1097 -90.8272 89° East 513 590 37,000  Level Memphis Center
02:15PM 36.1144 -90.6550 88° East 513 590 37,000  Level Memphis Center
02:16PM 36.1169 -90.4803 89° East 513 590 37,000  Level Memphis Center
02:17PM 36.1211 -90.3081 88° East 513 590 37,000  Level Memphis Center
02:18PM 36.1250 -90.1308 88° East 513 590 37,000  Level Memphis Center
02:19PM 36.1267 -89.9561 89° East 513 590 37,000  Level Memphis Center
02:20PM 36.1281 -89.7839 89° East 513 590 37,000  Level Memphis Center
02:21PM 36.1292 -89.6092 89° East 513 590 37,000  Level Memphis Center
02:22PM 36.1322 -89.4344 89° East 508 585 37,000  Level Memphis Center
02:23PM 36.1411 -89.2622 86° East 508 585 37,000  Level Memphis Center
02:24PM 36.1875 -89.0942 71° East 508 585 37,000  Level Memphis Center
02:25PM 36.2442 -88.9339 66° East 502 578 37,000  Level Memphis Center
02:26PM 36.2986 -88.7733 67° East 502 578 37,000  Level Memphis Center
02:27PM 36.3528 -88.6175 67° East 497 572 37,000  Level Memphis Center
02:28PM 36.4067 -88.4514 68° East 502 578 37,000  Level Memphis Center
02:29PM 36.4603 -88.2903 67° East 502 578 37,000  Level Memphis Center
02:30PM 36.5139 -88.1314 67° East 497 572 37,000  Level Memphis Center
02:31PM 36.5569 -87.9906 69° East 497 572 37,000  Level Memphis Center
02:32PM 36.6081 -87.8289 68° East 497 572 37,000  Level Memphis Center
02:33PM 36.6647 -87.6539 68° East 497 572 37,000  Level Memphis Center
02:34PM 36.7153 -87.4917 69° East 497 572 37,000  Level Memphis Center
02:35PM 36.7678 -87.3292 68° East 497 572 37,000  Level Memphis Center
02:36PM 36.8178 -87.1667 69° East 497 572 37,000  Level Memphis Center
02:37PM 36.8697 -87.0039 68° East 502 578 37,000  Level Memphis Center
02:38PM 36.9194 -86.8408 69° East 502 578 37,000  Level Memphis Center
02:39PM 36.9708 -86.6750 69° East 502 578 37,000  Level Memphis Center
02:40PM 37.0167 -86.5300 68° East 496 571 37,000  Level Memphis Center
02:41PM 37.0656 -86.3664 69° East 501 577 37,000  Level Memphis Center
02:42PM 37.1389 -86.1194 70° East 506 582 37,000  Level Indianapolis Center
02:43PM 37.1892 -85.9514 69° East 509 586 37,000  Level Indianapolis Center
02:44PM 37.2397 -85.7853 69° East 506 582 37,000  Level Indianapolis Center
02:45PM 37.2883 -85.6172 70° East 507 583 37,000  Level Indianapolis Center
02:47PM 37.3431 -85.4353 69° East 503 579 37,000  Level Indianapolis Center
02:48PM 37.3922 -85.2692 70° East 507 583 37,000  Level Indianapolis Center
02:49PM 37.4389 -85.1028 71° East 504 580 37,000  Level Indianapolis Center
02:50PM 37.4892 -84.9356 69° East 509 586 37,000  Level Indianapolis Center
02:51PM 37.5358 -84.7694 70° East 505 581 37,000  Level Indianapolis Center
02:52PM 37.5828 -84.6025 70° East 506 582 37,000  Level Indianapolis Center
02:53PM 37.6386 -84.4094 70° East 501 577 37,000  Level Indianapolis Center
02:54PM 37.6844 -84.2475 70° East 490 564 37,000  Level Indianapolis Center
02:55PM 37.7289 -84.0883 71° East 483 556 37,000  Level Indianapolis Center
02:56PM 37.7733 -83.9294 70° East 479 551 37,000  Level Indianapolis Center
02:57PM 37.8181 -83.7664 71° East 491 565 37,000  Level Indianapolis Center
02:58PM 37.8656 -83.5992 70° East 499 574 37,000  Level Indianapolis Center
02:59PM 37.9086 -83.4331 72° East 497 572 37,000  Level Indianapolis Center
03:00PM 37.9625 -83.2397 70° East 496 571 37,000  Level Indianapolis Center
03:01PM 38.0078 -83.0731 71° East 495 570 37,000  Level Indianapolis Center
03:02PM 38.0567 -82.9097 69° East 493 567 37,000  Level Indianapolis Center
03:03PM 38.1347 -82.7706 54° Northeast 483 556 37,000  Level Indianapolis Center
03:04PM 38.1803 -82.6089 70° East 484 557 37,000  Level Indianapolis Center
03:05PM 38.2136 -82.4439 76° East 483 556 37,000  Level Indianapolis Center
03:06PM 38.2475 -82.2789 75° East 483 556 37,000 -180 Level Indianapolis Center
03:07PM 38.2817 -82.1161 75° East 479 551 36,700 -480 Descending Indianapolis Center
03:08PM 38.3203 -81.9164 76° East 487 560 36,100 -600 Descending Indianapolis Center
03:09PM 38.3481 -81.7550 78° East 476 548 35,500 -540 Descending Indianapolis Center
03:10PM 38.3442 -81.5878 92° East 476 548 35,000 -300 Descending Indianapolis Center
03:11PM 38.3383 -81.4214 93° East 475 547 35,000  Level Indianapolis Center
03:12PM 38.3328 -81.2528 92° East 480 552 35,000 -420 Level Indianapolis Center
03:13PM 38.3256 -81.0508 93° East 480 552 34,200 -900 Descending Indianapolis Center
03:14PM 38.3194 -80.8850 93° East 473 544 33,200 -600 Descending Indianapolis Center
03:15PM 38.3119 -80.7150 93° East 472 543 33,000 -120 Descending Washington Center
03:16PM 38.3067 -80.5481 92° East 472 543 33,000  Level Washington Center
03:17PM 38.3175 -80.3792 85° East 472 543 33,000  Level Washington Center
03:18PM 38.3519 -80.1961 76° East 477 549 33,000  Level Washington Center
03:19PM 38.3869 -80.0367 74° East 477 549 33,000 -240 Level Washington Center
03:20PM 38.4219 -79.8772 74° East 471 542 32,600 -1,260 Descending Washington Center
03:21PM 38.4611 -79.7122 73° East 471 542 30,500 -2,880 Descending Washington Center
03:22PM 38.4981 -79.5497 74° East 471 542 26,900 -3,600 Descending Washington Center
03:23PM 38.5297 -79.4108 74° East 466 536 23,300 -1,980 Descending Washington Center
03:24PM 38.5550 -79.2636 78° East 441 507 23,000 -600 Descending Washington Center
03:25PM 38.5789 -79.0972 80° East 436 502 22,100 -1,560 Descending Washington Center
03:26PM 38.6061 -78.9472 77° East 420 483 19,900 -2,160 Descending Washington Center
03:27PM 38.6286 -78.8100 78° East 407 468 17,800 -2,160 Descending Washington Center
03:28PM 38.6592 -78.6783 73° East 392 451 15,600 -2,040 Descending Washington Center
03:29PM 38.6917 -78.5467 72° East 380 437 13,800 -1,920 Descending Washington Center
03:30PM 38.7194 -78.4333 73° East 348 400 11,800 -1,920 Descending Washington Center
03:31PM 38.7633 -78.3367 60° Northeast 311 358 10,000 -1,440 Descending Washington Center
03:32PM 38.8086 -78.2717 48° Northeast 306 352 9,000 -600 Descending Washington Center
03:33PM 38.8650 -78.1644 56° Northeast 306 352 8,900 -540 Descending Washington Center
03:34PM 38.8878 -78.0744 72° East 292 336 8,000 -1,080 Descending Washington Center
03:35PM 38.9172 -77.9633 71° East 292 336 6,800 -1,020 Descending Washington Center
03:36PM 38.9375 -77.8761 73° East 286 329 6,000 -420 Descending Washington Center
03:37PM 38.9622 -77.7808 72° East 265 305 6,000  Level Washington Center
03:38PM 38.9594 -77.7006 93° East 254 292 6,000  Level Washington Center
03:39PM 38.9667 -77.6167 84° East 259 298 6,000 -60 Level Potomac TRACON
03:40PM 39.0333 -77.5667 30° Northeast 253 291 5,900 -60 Descending Potomac TRACON
03:41PM 39.0833 -77.5667 360° North 208 239 5,900 -480 Level Potomac TRACON
03:42PM 39.1500 -77.5667 360° North 210 242 5,000 -960 Descending Potomac TRACON
03:43PM 39.1833 -77.5333 38° Northeast 207 238 3,900 -960 Descending Potomac TRACON
03:44PM 39.1667 -77.4833 113° Southeast 179 206 3,100 -540 Descending Potomac TRACON
03:45PM 39.1167 -77.4667 165° South 164 189 2,900 -360 Descending Potomac TRACON
03:46PM 39.0833 -77.4667 180° South 164 189 2,400 -720 Descending Potomac TRACON
03:47PM 39.0333 -77.4667 180° South 158 182 1,500 -840 Descending Potomac TRACON
03:48PM 39.0000 -77.4667 180° South 136 157 900 -660 Descending Potomac TRACON